createdAt,value
2018-12-30T00:00:01.764Z,8.50
2018-12-30T00:02:31.859Z,8.50
2018-12-30T00:05:01.386Z,8.40
2018-12-30T00:07:31.475Z,8.30
2018-12-30T00:10:00.655Z,8.30
2018-12-30T00:12:30.088Z,8.30
2018-12-30T00:14:59.668Z,8.30
2018-12-30T00:17:28.919Z,8.40
2018-12-30T00:19:58.656Z,8.50
2018-12-30T00:22:28.224Z,8.60
2018-12-30T00:24:57.480Z,8.50
2018-12-30T00:27:27.186Z,8.60
2018-12-30T00:29:56.418Z,8.70
2018-12-30T00:32:27.977Z,8.60
2018-12-30T00:34:57.652Z,8.60
2018-12-30T00:37:26.880Z,8.60
2018-12-30T00:39:56.637Z,8.70
2018-12-30T00:42:26.105Z,8.70
2018-12-30T00:44:55.766Z,8.60
2018-12-30T00:47:25.019Z,8.60
2018-12-30T00:49:54.248Z,8.50
2018-12-30T00:52:23.488Z,8.60
2018-12-30T00:54:53.251Z,8.70
2018-12-30T00:57:22.971Z,8.60
2018-12-30T00:59:52.223Z,8.70
2018-12-30T01:02:21.960Z,8.70
2018-12-30T01:04:51.236Z,8.80
2018-12-30T01:07:21.574Z,8.90
2018-12-30T01:09:50.843Z,8.90
2018-12-30T01:12:20.975Z,8.90
2018-12-30T01:14:50.609Z,8.90
2018-12-30T01:17:19.883Z,8.90
2018-12-30T01:19:49.582Z,8.90
2018-12-30T01:22:18.833Z,8.90
2018-12-30T01:24:49.424Z,8.90
2018-12-30T01:27:18.732Z,8.90
2018-12-30T01:29:47.992Z,8.90
2018-12-30T01:32:17.371Z,8.90
2018-12-30T01:34:47.020Z,9.00
2018-12-30T01:37:16.563Z,9.10
2018-12-30T01:39:46.119Z,9.00
2018-12-30T01:42:18.791Z,9.00
2018-12-30T01:44:48.061Z,9.00
2018-12-30T01:47:18.033Z,9.00
2018-12-30T01:49:47.987Z,9.00
2018-12-30T01:52:17.232Z,9.10
2018-12-30T01:54:46.676Z,9.10
2018-12-30T01:57:15.984Z,9.10
2018-12-30T01:59:45.752Z,9.10
2018-12-30T02:02:14.982Z,9.10
2018-12-30T02:04:44.228Z,9.10
2018-12-30T02:07:13.475Z,9.10
2018-12-30T02:09:42.728Z,9.10
2018-12-30T02:12:12.515Z,9.10
2018-12-30T02:14:41.775Z,9.10
2018-12-30T02:17:30.425Z,9.00
2018-12-30T02:19:59.680Z,9.00
2018-12-30T02:22:29.029Z,9.10
2018-12-30T02:24:58.276Z,9.00
2018-12-30T02:27:27.531Z,9.10
2018-12-30T02:30:16.513Z,9.10
2018-12-30T02:32:45.760Z,9.10
2018-12-30T02:35:14.984Z,9.10
2018-12-30T02:37:44.233Z,9.20
2018-12-30T02:40:13.741Z,9.20
2018-12-30T02:42:42.969Z,9.20
2018-12-30T02:45:12.668Z,9.20
2018-12-30T02:47:41.931Z,9.20
2018-12-30T02:50:11.160Z,9.30
2018-12-30T02:52:40.640Z,9.30
2018-12-30T02:55:10.460Z,9.30
2018-12-30T02:57:39.692Z,9.30
2018-12-30T03:00:09.318Z,9.30
2018-12-30T03:02:38.653Z,9.30
2018-12-30T03:05:07.819Z,9.30
2018-12-30T03:07:37.884Z,9.40
2018-12-30T03:10:07.443Z,9.40
2018-12-30T03:12:36.765Z,9.40
2018-12-30T03:15:06.562Z,9.40
2018-12-30T03:17:35.831Z,9.40
2018-12-30T03:20:05.930Z,9.50
2018-12-30T03:22:35.174Z,9.50
2018-12-30T03:25:04.499Z,9.50
2018-12-30T03:27:33.725Z,9.50
2018-12-30T03:30:05.917Z,9.50
2018-12-30T03:32:35.572Z,9.50
2018-12-30T03:35:04.803Z,9.50
2018-12-30T03:37:33.965Z,9.50
2018-12-30T03:40:05.832Z,9.50
2018-12-30T03:42:35.178Z,9.50
2018-12-30T03:45:05.233Z,9.50
2018-12-30T03:47:34.557Z,9.50
2018-12-30T03:50:03.765Z,9.50
2018-12-30T03:52:33.470Z,9.50
2018-12-30T03:55:02.716Z,9.50
2018-12-30T03:57:32.227Z,9.50
2018-12-30T04:00:01.771Z,9.60
2018-12-30T04:02:30.944Z,9.50
2018-12-30T04:05:00.378Z,9.50
2018-12-30T04:07:30.305Z,9.50
2018-12-30T04:10:00.282Z,9.60
2018-12-30T04:12:29.493Z,9.60
2018-12-30T04:14:58.664Z,9.50
2018-12-30T04:17:27.907Z,9.60
2018-12-30T04:19:57.085Z,9.60
2018-12-30T04:22:26.775Z,9.60
2018-12-30T04:24:56.039Z,9.60
2018-12-30T04:27:25.192Z,9.60
2018-12-30T04:29:54.721Z,9.70
2018-12-30T04:32:23.909Z,9.70
2018-12-30T04:34:53.140Z,9.70
2018-12-30T04:37:22.380Z,9.60
2018-12-30T04:39:51.632Z,9.70
2018-12-30T04:42:20.781Z,9.70
2018-12-30T04:44:50.006Z,9.70
2018-12-30T04:47:20.032Z,9.70
2018-12-30T04:49:49.258Z,9.80
2018-12-30T04:52:25.632Z,9.80
2018-12-30T04:54:49.369Z,9.80
2018-12-30T04:57:18.604Z,9.80
2018-12-30T04:59:48.323Z,9.80
2018-12-30T05:02:18.321Z,9.80
2018-12-30T05:04:47.468Z,9.80
2018-12-30T05:07:16.637Z,9.80
2018-12-30T05:09:45.880Z,9.90
2018-12-30T05:12:15.620Z,9.80
2018-12-30T05:14:45.171Z,9.80
2018-12-30T05:17:15.020Z,9.80
2018-12-30T05:19:44.168Z,9.80
2018-12-30T05:22:13.325Z,9.80
2018-12-30T05:24:42.875Z,9.90
2018-12-30T05:27:12.027Z,10.00
2018-12-30T05:29:41.581Z,10.20
2018-12-30T05:32:10.843Z,10.30
2018-12-30T05:34:40.576Z,10.40
2018-12-30T05:37:09.767Z,10.50
2018-12-30T05:39:39.528Z,10.50
2018-12-30T05:42:08.759Z,10.50
2018-12-30T05:44:37.999Z,10.60
2018-12-30T05:47:09.807Z,10.70
2018-12-30T05:49:39.444Z,10.70
2018-12-30T05:52:08.607Z,10.80
2018-12-30T05:54:38.259Z,10.80
2018-12-30T05:57:07.475Z,10.90
2018-12-30T05:59:36.648Z,10.90
2018-12-30T06:02:05.832Z,11.00
2018-12-30T06:04:36.060Z,11.00
2018-12-30T06:07:05.304Z,11.00
2018-12-30T06:09:34.755Z,11.00
2018-12-30T06:12:04.024Z,11.00
2018-12-30T06:14:33.315Z,11.00
2018-12-30T06:17:03.580Z,11.00
2018-12-30T06:19:33.457Z,11.00
2018-12-30T06:22:03.020Z,11.00
2018-12-30T06:24:32.304Z,11.10
2018-12-30T06:27:01.482Z,11.00
2018-12-30T06:29:30.729Z,11.10
2018-12-30T06:32:00.779Z,11.10
2018-12-30T06:34:30.255Z,11.10
2018-12-30T06:36:59.403Z,11.10
2018-12-30T06:39:28.597Z,11.20
2018-12-30T06:41:58.048Z,11.10
2018-12-30T06:44:27.273Z,11.20
2018-12-30T06:46:56.524Z,11.20
2018-12-30T06:49:26.275Z,11.20
2018-12-30T06:51:55.508Z,11.20
2018-12-30T06:54:24.832Z,11.20
2018-12-30T06:56:53.980Z,11.20
2018-12-30T06:59:23.153Z,11.20
2018-12-30T07:01:52.420Z,11.20
2018-12-30T07:04:21.799Z,11.30
2018-12-30T07:06:50.968Z,11.30
2018-12-30T07:09:20.635Z,11.30
2018-12-30T07:11:50.049Z,11.30
2018-12-30T07:14:19.241Z,11.40
2018-12-30T07:16:48.561Z,11.30
2018-12-30T07:19:17.786Z,11.40
2018-12-30T07:21:47.324Z,11.40
2018-12-30T07:24:16.503Z,11.40
2018-12-30T07:26:45.656Z,11.40
2018-12-30T07:29:14.898Z,11.30
2018-12-30T07:31:44.069Z,11.30
2018-12-30T07:34:13.219Z,11.20
2018-12-30T07:36:42.483Z,11.20
2018-12-30T07:39:11.724Z,11.20
2018-12-30T07:41:40.872Z,11.20
2018-12-30T07:44:11.640Z,11.20
2018-12-30T07:46:41.111Z,11.20
2018-12-30T07:49:10.855Z,11.20
2018-12-30T07:51:40.073Z,11.20
2018-12-30T07:54:09.279Z,11.10
2018-12-30T07:56:39.333Z,11.10
2018-12-30T07:59:09.220Z,11.20
2018-12-30T08:01:38.427Z,11.20
2018-12-30T08:04:07.585Z,11.20
2018-12-30T08:06:37.215Z,11.20
2018-12-30T08:09:07.295Z,11.20
2018-12-30T08:11:37.256Z,11.20
2018-12-30T08:14:06.614Z,11.20
2018-12-30T08:16:35.880Z,11.10
2018-12-30T08:19:05.099Z,11.20
2018-12-30T08:21:34.555Z,11.20
2018-12-30T08:24:03.743Z,11.10
2018-12-30T08:26:32.897Z,11.10
2018-12-30T08:29:02.132Z,11.10
2018-12-30T08:31:31.768Z,11.10
2018-12-30T08:34:01.003Z,11.20
2018-12-30T08:36:30.267Z,11.20
2018-12-30T08:38:59.509Z,11.10
2018-12-30T08:41:30.360Z,11.20
2018-12-30T08:43:59.599Z,11.20
2018-12-30T08:46:28.847Z,11.10
2018-12-30T08:48:58.000Z,11.10
2018-12-30T08:51:27.177Z,11.10
2018-12-30T08:53:56.707Z,11.10
2018-12-30T08:56:25.859Z,11.10
2018-12-30T08:58:55.359Z,11.20
2018-12-30T09:01:28.247Z,11.20
2018-12-30T09:03:55.382Z,11.20
2018-12-30T09:06:24.600Z,11.20
2018-12-30T09:08:53.856Z,11.20
2018-12-30T09:11:23.083Z,11.20
2018-12-30T09:13:54.244Z,11.30
2018-12-30T09:16:24.506Z,11.30
2018-12-30T09:18:54.396Z,11.30
2018-12-30T09:21:23.619Z,11.40
2018-12-30T09:23:53.725Z,11.40
2018-12-30T09:26:24.732Z,11.50
2018-12-30T09:28:54.465Z,11.50
2018-12-30T09:31:23.662Z,11.50
2018-12-30T09:33:52.941Z,11.60
2018-12-30T09:36:23.786Z,11.50
2018-12-30T09:38:53.028Z,11.50
2018-12-30T09:41:22.287Z,11.50
2018-12-30T09:43:51.480Z,11.50
2018-12-30T09:46:20.720Z,11.60
2018-12-30T09:48:49.907Z,11.60
2018-12-30T09:51:19.147Z,11.60
2018-12-30T09:53:49.145Z,11.60
2018-12-30T09:56:18.872Z,11.60
2018-12-30T09:58:48.053Z,11.60
2018-12-30T10:01:18.476Z,11.60
2018-12-30T10:03:47.731Z,11.70
2018-12-30T10:06:16.915Z,11.70
2018-12-30T10:08:46.085Z,11.70
2018-12-30T10:11:15.574Z,11.70
2018-12-30T10:13:45.664Z,11.70
2018-12-30T10:16:15.503Z,11.80
2018-12-30T10:18:44.703Z,11.80
2018-12-30T10:21:13.875Z,11.80
2018-12-30T10:23:43.025Z,11.80
2018-12-30T10:26:12.191Z,11.80
2018-12-30T10:28:41.543Z,11.80
2018-12-30T10:31:10.691Z,11.80
2018-12-30T10:33:40.295Z,11.80
2018-12-30T10:36:09.467Z,11.90
2018-12-30T10:38:39.084Z,11.90
2018-12-30T10:41:08.334Z,12.00
2018-12-30T10:43:37.504Z,12.00
2018-12-30T10:46:06.656Z,12.00
2018-12-30T10:48:36.293Z,12.00
2018-12-30T10:51:05.683Z,11.90
2018-12-30T10:53:35.280Z,11.90
2018-12-30T10:56:04.435Z,11.90
2018-12-30T10:58:33.765Z,11.90
2018-12-30T11:01:02.979Z,11.90
2018-12-30T11:03:32.533Z,11.90
2018-12-30T11:06:01.715Z,11.90
2018-12-30T11:08:30.863Z,11.80
2018-12-30T11:11:00.048Z,11.80
2018-12-30T11:13:29.317Z,11.80
2018-12-30T11:15:58.587Z,11.80
2018-12-30T11:18:27.836Z,11.70
2018-12-30T11:20:58.163Z,11.70
2018-12-30T11:23:27.315Z,11.70
2018-12-30T11:25:56.484Z,11.80
2018-12-30T11:28:25.655Z,11.80
2018-12-30T11:30:54.832Z,11.80
2018-12-30T11:33:24.511Z,11.80
2018-12-30T11:35:53.677Z,11.80
2018-12-30T11:38:23.198Z,11.80
2018-12-30T11:40:52.450Z,11.80
2018-12-30T11:43:22.512Z,11.80
2018-12-30T11:45:52.411Z,11.80
2018-12-30T11:48:21.580Z,11.80
2018-12-30T11:50:50.756Z,11.80
2018-12-30T11:53:19.906Z,11.80
2018-12-30T11:55:49.187Z,11.80
2018-12-30T11:58:18.407Z,11.80
2018-12-30T12:00:47.640Z,11.80
2018-12-30T12:03:17.408Z,11.80
2018-12-30T12:05:46.615Z,11.80
2018-12-30T12:08:15.773Z,11.80
2018-12-30T12:10:45.003Z,11.80
2018-12-30T12:13:14.175Z,11.80
2018-12-30T12:15:43.315Z,11.80
2018-12-30T12:18:12.918Z,11.80
2018-12-30T12:20:42.634Z,11.80
2018-12-30T12:23:11.867Z,11.80
2018-12-30T12:25:41.180Z,11.80
2018-12-30T12:28:10.356Z,11.70
2018-12-30T12:30:39.618Z,11.70
2018-12-30T12:33:08.880Z,11.80
2018-12-30T12:35:38.055Z,11.80
2018-12-30T12:38:07.873Z,11.80
2018-12-30T12:40:37.023Z,11.70
2018-12-30T12:43:43.235Z,11.70
2018-12-30T12:46:12.685Z,11.70
2018-12-30T12:48:41.922Z,11.70
2018-12-30T12:51:11.167Z,11.70
2018-12-30T12:53:40.320Z,11.70
2018-12-30T12:56:09.476Z,11.70
2018-12-30T12:58:38.732Z,11.70
2018-12-30T13:01:08.115Z,11.80
2018-12-30T13:03:37.263Z,11.80
2018-12-30T13:06:06.443Z,11.80
2018-12-30T13:08:35.596Z,11.90
2018-12-30T13:11:04.779Z,11.90
2018-12-30T13:13:34.412Z,12.00
2018-12-30T13:16:03.822Z,11.90
2018-12-30T13:18:33.292Z,12.00
2018-12-30T13:21:02.559Z,11.90
2018-12-30T13:23:31.834Z,11.90
2018-12-30T13:26:00.993Z,11.90
2018-12-30T13:28:30.912Z,11.90
2018-12-30T13:31:00.063Z,11.90
2018-12-30T13:33:29.296Z,11.80
2018-12-30T13:35:58.583Z,11.90
2018-12-30T13:38:28.533Z,11.90
2018-12-30T13:40:57.893Z,11.80
2018-12-30T13:43:27.341Z,11.80
2018-12-30T13:45:56.539Z,11.90
2018-12-30T13:48:25.747Z,11.90
2018-12-30T13:50:55.355Z,11.90
2018-12-30T13:53:24.579Z,11.90
2018-12-30T13:55:54.016Z,12.00
2018-12-30T13:58:23.200Z,11.90
2018-12-30T14:00:52.418Z,11.90
2018-12-30T14:03:21.632Z,11.90
2018-12-30T14:05:50.804Z,11.90
2018-12-30T14:08:20.473Z,11.90
2018-12-30T14:10:49.649Z,11.90
2018-12-30T14:13:19.147Z,12.00
2018-12-30T14:15:51.085Z,11.90
2018-12-30T14:18:19.197Z,11.90
2018-12-30T14:20:48.376Z,11.90
2018-12-30T14:23:17.822Z,12.00
2018-12-30T14:25:47.049Z,11.90
2018-12-30T14:28:16.241Z,11.90
2018-12-30T14:30:45.459Z,11.80
2018-12-30T14:33:14.613Z,11.80
2018-12-30T14:35:43.863Z,11.80
2018-12-30T14:38:13.102Z,11.80
2018-12-30T14:40:42.315Z,11.80
2018-12-30T14:43:11.981Z,11.80
2018-12-30T14:45:41.247Z,11.80
2018-12-30T14:48:10.403Z,11.70
2018-12-30T14:50:39.950Z,11.70
2018-12-30T14:53:18.712Z,11.70
2018-12-30T14:55:40.018Z,11.70
2018-12-30T14:58:09.264Z,11.60
2018-12-30T15:00:39.388Z,11.60
2018-12-30T15:03:08.607Z,11.60
2018-12-30T15:05:37.791Z,11.60
2018-12-30T15:08:06.947Z,11.50
2018-12-30T15:10:36.134Z,11.50
2018-12-30T15:13:05.511Z,11.50
2018-12-30T15:15:35.147Z,11.50
2018-12-30T15:18:04.308Z,11.50
2018-12-30T15:20:33.796Z,11.50
2018-12-30T15:23:02.949Z,11.50
2018-12-30T15:25:32.192Z,11.50
2018-12-30T15:28:01.820Z,11.50
2018-12-30T15:30:30.992Z,11.50
2018-12-30T15:33:00.162Z,11.40
2018-12-30T15:35:29.947Z,11.40
2018-12-30T15:37:59.099Z,11.40
2018-12-30T15:40:28.269Z,11.40
2018-12-30T15:42:57.475Z,11.40
2018-12-30T15:45:26.626Z,11.30
2018-12-30T15:47:56.539Z,11.30
2018-12-30T15:50:25.725Z,11.30
2018-12-30T15:52:54.892Z,11.30
2018-12-30T15:55:24.595Z,11.30
2018-12-30T15:57:53.766Z,11.30
2018-12-30T16:00:23.375Z,11.30
2018-12-30T16:02:52.663Z,11.20
2018-12-30T16:05:21.843Z,11.20
2018-12-30T16:07:50.996Z,11.20
2018-12-30T16:10:20.168Z,11.20
2018-12-30T16:12:51.371Z,11.20
2018-12-30T16:15:20.523Z,11.20
2018-12-30T16:17:49.695Z,11.20
2018-12-30T16:20:20.351Z,11.10
2018-12-30T16:22:49.582Z,11.10
2018-12-30T16:25:19.115Z,11.00
2018-12-30T16:27:48.365Z,11.00
2018-12-30T16:30:17.781Z,10.90
2018-12-30T16:32:47.031Z,10.90
2018-12-30T16:35:16.279Z,10.90
2018-12-30T16:37:45.432Z,10.90
2018-12-30T16:40:14.608Z,10.90
2018-12-30T16:42:43.784Z,10.80
2018-12-30T16:45:12.956Z,10.80
2018-12-30T16:47:42.577Z,10.80
2018-12-30T16:50:11.835Z,10.80
2018-12-30T16:52:41.227Z,10.90
2018-12-30T16:55:10.494Z,10.90
2018-12-30T16:57:39.847Z,10.90
2018-12-30T17:00:09.844Z,10.90
2018-12-30T17:02:40.464Z,10.90
2018-12-30T17:05:09.718Z,10.90
2018-12-30T17:07:40.360Z,10.90
2018-12-30T17:10:10.520Z,10.90
2018-12-30T17:12:39.677Z,10.90
2018-12-30T17:15:09.111Z,10.90
2018-12-30T17:17:51.831Z,10.90
2018-12-30T17:20:21.004Z,10.90
2018-12-30T17:22:50.237Z,10.90
2018-12-30T17:25:19.411Z,10.90
2018-12-30T17:27:48.563Z,10.90
2018-12-30T17:30:17.767Z,10.90
2018-12-30T17:32:46.944Z,10.80
2018-12-30T17:35:16.106Z,10.90
2018-12-30T17:37:45.301Z,10.80
2018-12-30T17:40:14.482Z,10.80
2018-12-30T17:42:43.706Z,10.80
2018-12-30T17:45:12.883Z,10.80
2018-12-30T17:47:42.063Z,10.80
2018-12-30T17:50:11.210Z,10.80
2018-12-30T17:52:41.060Z,10.80
2018-12-30T17:55:10.242Z,10.80
2018-12-30T17:57:39.463Z,10.80
2018-12-30T18:00:09.024Z,10.90
2018-12-30T18:02:38.216Z,10.80
2018-12-30T18:05:07.810Z,10.70
2018-12-30T18:07:37.124Z,10.80
2018-12-30T18:10:06.867Z,10.80
2018-12-30T18:12:37.113Z,10.80
2018-12-30T18:15:07.908Z,10.80
2018-12-30T18:17:41.335Z,10.80
2018-12-30T18:20:08.224Z,10.80
2018-12-30T18:22:38.142Z,10.80
2018-12-30T18:25:08.272Z,10.70
2018-12-30T18:27:38.252Z,10.70
2018-12-30T18:30:08.628Z,10.70
2018-12-30T18:32:38.238Z,10.70
2018-12-30T18:35:07.428Z,10.80
2018-12-30T18:37:36.648Z,10.80
2018-12-30T18:40:06.463Z,10.80
2018-12-30T18:42:35.972Z,10.90
2018-12-30T18:45:05.696Z,10.80
2018-12-30T18:47:34.960Z,10.80
2018-12-30T18:50:07.347Z,10.80
2018-12-30T18:52:36.526Z,10.80
2018-12-30T18:55:06.282Z,10.80
2018-12-30T18:57:35.536Z,10.80
2018-12-30T19:00:06.716Z,10.90
2018-12-30T19:02:37.180Z,10.80
2018-12-30T19:05:07.567Z,10.80
2018-12-30T19:07:36.843Z,10.80
2018-12-30T19:10:06.807Z,10.70
2018-12-30T19:12:36.002Z,10.80
2018-12-30T19:15:06.276Z,10.80
2018-12-30T19:17:35.504Z,10.70
2018-12-30T19:20:05.573Z,10.80
2018-12-30T19:22:34.834Z,10.80
2018-12-30T19:25:04.596Z,10.70
2018-12-30T19:27:33.779Z,10.70
2018-12-30T19:30:03.480Z,10.70
2018-12-30T19:32:32.967Z,10.70
2018-12-30T19:35:02.143Z,10.70
2018-12-30T19:37:31.738Z,10.70
2018-12-30T19:40:01.009Z,10.60
2018-12-30T19:42:31.398Z,10.70
2018-12-30T19:45:00.547Z,10.60
2018-12-30T19:47:29.717Z,10.60
2018-12-30T19:49:59.042Z,10.60
2018-12-30T19:52:28.196Z,10.60
2018-12-30T19:54:57.379Z,10.60
2018-12-30T19:57:27.805Z,10.60
2018-12-30T19:59:57.059Z,10.60
2018-12-30T20:02:26.213Z,10.60
2018-12-30T20:04:56.171Z,10.50
2018-12-30T20:07:26.083Z,10.40
2018-12-30T20:09:56.241Z,10.40
2018-12-30T20:12:26.377Z,10.40
2018-12-30T20:14:55.601Z,10.40
2018-12-30T20:17:24.772Z,10.40
2018-12-30T20:19:54.447Z,10.40
2018-12-30T20:22:23.740Z,10.40
2018-12-30T20:24:52.930Z,10.30
2018-12-30T20:27:22.202Z,10.30
2018-12-30T20:29:51.755Z,10.40
2018-12-30T20:32:21.810Z,10.30
2018-12-30T20:34:51.079Z,10.20
2018-12-30T20:37:20.917Z,10.20
2018-12-30T20:39:50.663Z,10.10
2018-12-30T20:42:19.865Z,10.20
2018-12-30T20:44:49.158Z,10.20
2018-12-30T20:47:18.869Z,10.20
2018-12-30T20:49:48.120Z,10.10
2018-12-30T20:52:17.884Z,10.10
2018-12-30T20:54:47.702Z,10.10
2018-12-30T20:57:16.947Z,10.10
2018-12-30T20:59:46.168Z,10.10
2018-12-30T21:02:15.578Z,10.20
2018-12-30T21:04:45.485Z,10.30
2018-12-30T21:07:14.633Z,10.30
2018-12-30T21:09:43.803Z,10.30
2018-12-30T21:12:14.615Z,10.40
2018-12-30T21:14:43.937Z,10.40
2018-12-30T21:17:14.492Z,10.30
2018-12-30T21:19:43.660Z,10.40
2018-12-30T21:22:13.592Z,10.40
2018-12-30T21:24:43.309Z,10.40
2018-12-30T21:27:12.463Z,10.40
2018-12-30T21:29:41.649Z,10.40
2018-12-30T21:32:10.975Z,10.30
2018-12-30T21:34:41.004Z,10.30
2018-12-30T21:37:10.254Z,10.20
2018-12-30T21:39:40.068Z,10.20
2018-12-30T21:42:10.332Z,10.20
2018-12-30T21:44:40.243Z,10.10
2018-12-30T21:47:09.981Z,10.00
2018-12-30T21:49:39.209Z,10.10
2018-12-30T21:52:08.387Z,10.10
2018-12-30T21:54:37.835Z,10.00
2018-12-30T21:57:07.048Z,9.90
2018-12-30T21:59:36.226Z,9.90
2018-12-30T22:02:05.757Z,10.00
2018-12-30T22:04:36.797Z,10.00
2018-12-30T22:07:05.856Z,9.90
2018-12-30T22:09:35.591Z,9.90
2018-12-30T22:12:04.755Z,9.80
2018-12-30T22:14:34.290Z,9.70
2018-12-30T22:17:03.512Z,9.70
2018-12-30T22:19:33.001Z,9.70
2018-12-30T22:22:02.247Z,9.60
2018-12-30T22:24:31.915Z,9.40
2018-12-30T22:27:01.147Z,9.40
2018-12-30T22:29:30.300Z,9.40
2018-12-30T22:32:00.240Z,9.40
2018-12-30T22:34:31.457Z,9.50
2018-12-30T22:37:01.244Z,9.50
2018-12-30T22:39:30.631Z,9.50
2018-12-30T22:42:00.905Z,9.60
2018-12-30T22:44:30.092Z,9.50
2018-12-30T22:46:59.631Z,9.50
2018-12-30T22:49:28.784Z,9.60
2018-12-30T22:51:57.924Z,9.60
2018-12-30T22:54:27.097Z,9.60
2018-12-30T22:56:56.264Z,9.60
2018-12-30T22:59:26.768Z,9.60
2018-12-30T23:01:56.157Z,9.50
2018-12-30T23:04:25.298Z,9.40
2018-12-30T23:06:54.453Z,9.40
2018-12-30T23:09:23.635Z,9.40
2018-12-30T23:11:52.776Z,9.40
2018-12-30T23:14:21.920Z,9.40
2018-12-30T23:16:51.087Z,9.40
2018-12-30T23:19:20.235Z,9.30
2018-12-30T23:21:50.263Z,9.30
2018-12-30T23:24:19.437Z,9.30
2018-12-30T23:26:48.655Z,9.30
2018-12-30T23:29:17.800Z,9.30
2018-12-30T23:31:47.509Z,9.40
2018-12-30T23:34:16.655Z,9.50
2018-12-30T23:36:46.039Z,9.50
2018-12-30T23:39:15.287Z,9.60
2018-12-30T23:41:44.797Z,9.60
2018-12-30T23:44:13.957Z,9.50
2018-12-30T23:46:43.136Z,9.50
2018-12-30T23:49:12.347Z,9.60
2018-12-30T23:51:42.312Z,9.60
2018-12-30T23:54:11.559Z,9.60
2018-12-30T23:56:41.903Z,9.60
2018-12-30T23:59:11.606Z,9.60
